createdAt,value
2022-08-03T00:00:56.645Z,24.30
2022-08-03T00:02:05.783Z,24.64
2022-08-03T00:03:16.776Z,24.59
2022-08-03T00:04:34.102Z,24.71
2022-08-03T00:06:04.120Z,24.72
2022-08-03T00:07:12.514Z,24.82
2022-08-03T00:08:20.758Z,24.65
2022-08-03T00:09:35.665Z,24.49
2022-08-03T00:10:44.890Z,24.42
2022-08-03T00:11:56.113Z,24.48
2022-08-03T00:13:04.223Z,24.50
2022-08-03T00:14:13.857Z,24.33
2022-08-03T00:15:22.813Z,24.21
2022-08-03T00:16:34.594Z,24.38
2022-08-03T00:17:52.769Z,24.51
2022-08-03T00:19:03.097Z,24.99
2022-08-03T00:20:14.393Z,25.16
2022-08-03T00:21:24.885Z,25.09
2022-08-03T00:22:32.696Z,25.20
2022-08-03T00:23:51.527Z,25.50
2022-08-03T00:25:03.726Z,25.23
2022-08-03T00:26:16.907Z,24.86
2022-08-03T00:27:33.816Z,25.05
2022-08-03T00:28:45.686Z,24.97
2022-08-03T00:29:59.890Z,24.97
2022-08-03T00:31:13.739Z,25.14
2022-08-03T00:32:24.937Z,24.87
2022-08-03T00:33:58.056Z,24.96
2022-08-03T00:35:08.346Z,24.87
2022-08-03T00:36:20.415Z,24.93
2022-08-03T00:37:40.822Z,24.91
2022-08-03T00:38:53.165Z,25.04
2022-08-03T00:40:05.481Z,25.31
2022-08-03T00:41:15.727Z,25.48
2022-08-03T00:42:24.773Z,25.45
2022-08-03T00:43:37.218Z,25.55
2022-08-03T00:44:47.137Z,25.50
2022-08-03T00:45:57.553Z,25.85
2022-08-03T00:47:06.151Z,26.00
2022-08-03T00:48:19.751Z,25.95
2022-08-03T00:49:45.471Z,26.04
2022-08-03T00:50:55.327Z,25.98
2022-08-03T00:52:07.795Z,25.63
2022-08-03T00:53:18.217Z,25.56
2022-08-03T00:54:28.314Z,25.72
2022-08-03T00:55:37.948Z,25.92
2022-08-03T00:57:00.108Z,26.08
2022-08-03T00:58:12.682Z,25.99
2022-08-03T00:59:22.216Z,26.32
2022-08-03T01:00:35.016Z,26.42
2022-08-03T01:01:43.386Z,26.48
2022-08-03T01:02:54.409Z,26.79
2022-08-03T01:04:02.852Z,26.83
2022-08-03T01:05:12.512Z,27.00
2022-08-03T01:06:26.266Z,27.34
2022-08-03T01:08:00.611Z,27.27
2022-08-03T01:09:34.454Z,27.52
2022-08-03T01:11:07.397Z,27.62
2022-08-03T01:12:52.659Z,27.62
2022-08-03T01:14:18.921Z,27.69
2022-08-03T01:15:38.992Z,27.61
2022-08-03T01:16:51.158Z,27.57
2022-08-03T01:18:06.928Z,27.61
2022-08-03T01:19:28.294Z,27.52
2022-08-03T01:20:38.665Z,27.59
2022-08-03T01:22:09.181Z,27.73
2022-08-03T01:23:41.387Z,27.84
2022-08-03T01:24:59.061Z,27.98
2022-08-03T01:26:21.225Z,28.25
2022-08-03T01:27:58.463Z,28.21
2022-08-03T01:29:26.842Z,28.09
2022-08-03T01:30:36.068Z,28.13
2022-08-03T01:32:58.489Z,28.07
2022-08-03T01:33:39.724Z,28.12
2022-08-03T01:35:04.693Z,28.38
2022-08-03T01:36:16.895Z,28.59
2022-08-03T01:37:34.698Z,28.53
2022-08-03T01:39:02.132Z,28.57
2022-08-03T01:40:15.595Z,28.76
2022-08-03T01:41:27.390Z,28.60
2022-08-03T01:42:35.582Z,28.80
2022-08-03T01:44:26.609Z,29.05
2022-08-03T01:45:16.613Z,29.07
2022-08-03T01:46:25.170Z,29.06
2022-08-03T01:47:33.501Z,29.01
2022-08-03T01:48:45.043Z,29.26
2022-08-03T01:49:55.241Z,29.12
2022-08-03T01:51:05.760Z,29.19
2022-08-03T01:52:15.846Z,29.00
2022-08-03T01:53:25.310Z,28.90
2022-08-03T01:54:37.593Z,29.00
2022-08-03T01:55:48.250Z,29.13
2022-08-03T01:56:59.256Z,29.01
2022-08-03T01:58:10.401Z,29.05
2022-08-03T01:59:18.486Z,29.43
2022-08-03T02:00:26.973Z,29.63
2022-08-03T02:02:25.248Z,29.90
2022-08-03T02:03:07.455Z,29.92
2022-08-03T02:04:17.269Z,30.00
2022-08-03T02:05:28.633Z,30.37
2022-08-03T02:06:59.885Z,30.42
2022-08-03T02:08:08.668Z,30.74
2022-08-03T02:09:17.854Z,30.86
2022-08-03T02:10:34.725Z,30.92
2022-08-03T02:11:46.345Z,31.03
2022-08-03T02:12:55.837Z,31.32
2022-08-03T02:14:06.502Z,31.80
2022-08-03T02:15:15.127Z,32.03
2022-08-03T02:16:25.123Z,32.15
2022-08-03T02:17:39.070Z,32.60
2022-08-03T02:18:54.665Z,32.95
2022-08-03T02:20:05.776Z,32.84
2022-08-03T02:21:55.875Z,33.54
2022-08-03T02:22:43.839Z,33.85
2022-08-03T02:23:55.976Z,34.41
2022-08-03T02:25:05.523Z,34.63
2022-08-03T02:26:17.780Z,35.03
2022-08-03T02:27:28.715Z,35.28
2022-08-03T02:28:42.812Z,35.37
2022-08-03T02:29:53.959Z,35.42
2022-08-03T02:31:06.350Z,35.39
2022-08-03T02:32:19.954Z,35.29
2022-08-03T02:33:31.017Z,35.39
2022-08-03T02:34:42.054Z,35.47
2022-08-03T02:35:52.701Z,35.92
2022-08-03T02:37:02.380Z,36.37
2022-08-03T02:38:10.930Z,36.95
2022-08-03T02:39:22.652Z,37.37
2022-08-03T02:40:33.806Z,37.70
2022-08-03T02:42:04.633Z,37.98
2022-08-03T02:43:14.258Z,38.22
2022-08-03T02:44:30.273Z,38.36
2022-08-03T02:45:41.512Z,38.46
2022-08-03T02:46:59.991Z,38.53
2022-08-03T02:48:09.456Z,38.36
2022-08-03T02:49:49.500Z,38.17
2022-08-03T02:50:51.058Z,38.49
2022-08-03T02:52:02.149Z,38.34
2022-08-03T02:53:11.210Z,38.27
2022-08-03T02:54:22.760Z,38.07
2022-08-03T02:55:31.043Z,38.34
2022-08-03T02:56:41.777Z,38.59
2022-08-03T02:57:50.225Z,39.03
2022-08-03T02:59:01.600Z,39.16
2022-08-03T03:00:11.237Z,39.04
2022-08-03T03:01:21.275Z,38.95
2022-08-03T03:02:32.430Z,38.78
2022-08-03T03:03:44.878Z,38.88
2022-08-03T03:05:51.765Z,38.97
2022-08-03T03:06:27.145Z,39.15
2022-08-03T03:07:52.016Z,39.35
2022-08-03T03:09:05.026Z,39.53
2022-08-03T03:10:16.319Z,39.80
2022-08-03T03:11:25.897Z,39.90
2022-08-03T03:12:34.723Z,39.90
2022-08-03T03:13:44.866Z,40.05
2022-08-03T03:14:53.118Z,39.69
2022-08-03T03:16:06.480Z,39.12
2022-08-03T03:17:14.773Z,38.42
2022-08-03T03:18:25.813Z,38.22
2022-08-03T03:19:34.167Z,38.51
2022-08-03T03:20:42.658Z,39.16
2022-08-03T03:21:54.200Z,39.29
2022-08-03T03:23:04.855Z,39.52
2022-08-03T03:24:13.265Z,39.86
2022-08-03T03:25:25.433Z,39.91
2022-08-03T03:26:37.369Z,40.25
2022-08-03T03:27:50.876Z,40.63
2022-08-03T03:29:02.724Z,40.66
2022-08-03T03:30:13.774Z,40.32
2022-08-03T03:31:21.929Z,40.07
2022-08-03T03:32:31.957Z,40.13
2022-08-03T03:33:40.986Z,40.33
2022-08-03T03:34:52.308Z,40.53
2022-08-03T03:36:01.244Z,40.78
2022-08-03T03:37:09.260Z,40.90
2022-08-03T03:38:18.822Z,41.06
2022-08-03T03:39:28.267Z,41.31
2022-08-03T03:40:40.244Z,41.65
2022-08-03T03:41:49.066Z,41.42
2022-08-03T03:43:01.347Z,41.86
2022-08-03T03:44:11.342Z,42.24
2022-08-03T03:45:21.101Z,42.11
2022-08-03T03:46:29.087Z,42.21
2022-08-03T03:47:37.375Z,42.26
2022-08-03T03:48:46.562Z,42.22
2022-08-03T03:49:56.707Z,42.38
2022-08-03T03:51:05.849Z,42.44
2022-08-03T03:52:15.563Z,42.85
2022-08-03T03:53:24.470Z,43.22
2022-08-03T03:54:55.370Z,43.48
2022-08-03T03:56:08.983Z,43.44
2022-08-03T03:57:17.255Z,43.61
2022-08-03T03:58:26.695Z,43.91
2022-08-03T03:59:35.952Z,44.14
2022-08-03T04:00:46.921Z,44.21
2022-08-03T04:01:58.782Z,44.36
2022-08-03T04:03:07.562Z,44.49
2022-08-03T04:04:37.710Z,44.70
2022-08-03T04:06:07.722Z,44.73
2022-08-03T04:07:34.227Z,44.88
2022-08-03T04:09:03.732Z,45.18
2022-08-03T04:10:44.965Z,45.16
2022-08-03T04:12:00.178Z,45.40
2022-08-03T04:13:11.872Z,45.47
2022-08-03T04:14:27.280Z,45.81
2022-08-03T04:15:36.082Z,45.92
2022-08-03T04:16:49.272Z,46.10
2022-08-03T04:17:59.836Z,45.96
2022-08-03T04:19:40.718Z,45.87
2022-08-03T04:20:52.480Z,45.72
2022-08-03T04:22:09.839Z,45.75
2022-08-03T04:23:18.246Z,45.73
2022-08-03T04:24:31.944Z,45.65
2022-08-03T04:25:40.680Z,45.38
2022-08-03T04:26:52.653Z,45.24
2022-08-03T04:28:29.630Z,45.11
2022-08-03T04:29:34.956Z,45.02
2022-08-03T04:30:51.125Z,44.91
2022-08-03T04:32:03.071Z,44.67
2022-08-03T04:33:12.619Z,44.38
2022-08-03T04:34:23.835Z,44.14
2022-08-03T04:36:01.033Z,44.11
2022-08-03T04:37:04.011Z,43.96
2022-08-03T04:38:15.915Z,43.85
2022-08-03T04:39:29.600Z,43.35
2022-08-03T04:40:40.391Z,43.13
2022-08-03T04:42:04.755Z,43.05
2022-08-03T04:43:17.361Z,42.96
2022-08-03T04:44:28.609Z,42.60
2022-08-03T04:45:37.016Z,42.48
2022-08-03T04:46:50.432Z,42.10
2022-08-03T04:48:04.559Z,41.45
2022-08-03T04:49:13.877Z,40.97
2022-08-03T04:50:21.933Z,40.60
2022-08-03T04:51:46.609Z,39.79
2022-08-03T04:52:58.445Z,39.51
2022-08-03T04:54:09.163Z,38.74
2022-08-03T04:55:33.499Z,38.43
2022-08-03T04:56:44.813Z,38.40
2022-08-03T04:57:55.594Z,38.91
2022-08-03T04:59:03.972Z,39.25
2022-08-03T05:00:13.267Z,39.41
2022-08-03T05:01:22.462Z,39.57
2022-08-03T05:02:33.800Z,39.70
2022-08-03T05:03:42.522Z,39.89
2022-08-03T05:04:51.612Z,40.11
2022-08-03T05:06:11.136Z,40.25
2022-08-03T05:07:24.738Z,40.54
2022-08-03T05:08:36.195Z,40.72
2022-08-03T05:10:01.536Z,41.02
2022-08-03T05:11:15.468Z,41.12
2022-08-03T05:12:23.944Z,41.35
2022-08-03T05:13:32.163Z,41.53
2022-08-03T05:14:43.114Z,41.59
2022-08-03T05:15:51.698Z,41.73
2022-08-03T05:16:59.957Z,41.72
2022-08-03T05:18:13.692Z,41.84
2022-08-03T05:19:22.909Z,41.97
2022-08-03T05:20:34.006Z,42.03
2022-08-03T05:21:52.910Z,42.01
2022-08-03T05:23:06.322Z,42.15
2022-08-03T05:24:16.313Z,42.28
2022-08-03T05:25:27.506Z,42.33
2022-08-03T05:26:36.884Z,42.27
2022-08-03T05:27:45.095Z,42.27
2022-08-03T05:28:55.947Z,42.41
2022-08-03T05:30:30.938Z,42.39
2022-08-03T05:31:34.435Z,42.29
2022-08-03T05:32:44.621Z,42.16
2022-08-03T05:33:53.465Z,42.20
2022-08-03T05:35:56.788Z,42.52
2022-08-03T05:36:29.829Z,42.67
2022-08-03T05:37:38.722Z,42.80
2022-08-03T05:39:03.813Z,43.09
2022-08-03T05:40:16.597Z,43.53
2022-08-03T05:41:37.112Z,44.89
2022-08-03T05:42:47.023Z,45.15
2022-08-03T05:43:56.891Z,45.72
2022-08-03T05:45:16.493Z,46.04
2022-08-03T05:46:27.518Z,46.33
2022-08-03T05:47:35.843Z,46.49
2022-08-03T05:48:46.481Z,46.73
2022-08-03T05:49:57.485Z,46.79
2022-08-03T05:51:09.490Z,46.67
2022-08-03T05:52:18.398Z,46.62
2022-08-03T05:53:29.141Z,46.62
2022-08-03T05:54:56.064Z,46.43
2022-08-03T05:56:14.481Z,46.40
2022-08-03T05:57:26.976Z,46.34
2022-08-03T05:58:37.164Z,46.34
2022-08-03T05:59:53.812Z,46.31
2022-08-03T06:01:09.549Z,46.37
2022-08-03T06:02:19.100Z,46.34
2022-08-03T06:03:27.302Z,46.39
2022-08-03T06:04:37.025Z,46.35
2022-08-03T06:06:00.533Z,46.33
2022-08-03T06:07:10.253Z,46.48
2022-08-03T06:08:19.009Z,46.51
2022-08-03T06:10:33.627Z,46.56
2022-08-03T06:10:56.965Z,46.64
2022-08-03T06:12:09.104Z,46.64
2022-08-03T06:13:19.784Z,46.58
2022-08-03T06:14:31.982Z,46.70
2022-08-03T06:15:40.078Z,46.95
2022-08-03T06:16:49.037Z,47.06
2022-08-03T06:18:02.021Z,46.92
2022-08-03T06:19:13.051Z,46.89
2022-08-03T06:20:22.446Z,46.92
2022-08-03T06:21:35.965Z,47.19
2022-08-03T06:22:51.007Z,47.30
2022-08-03T06:24:10.549Z,47.21
2022-08-03T06:25:21.444Z,47.37
2022-08-03T06:26:33.158Z,47.24
2022-08-03T06:27:44.316Z,47.49
2022-08-03T06:28:56.247Z,47.56
2022-08-03T06:30:06.898Z,47.48
2022-08-03T06:31:16.032Z,47.79
2022-08-03T06:32:26.084Z,47.97
2022-08-03T06:33:48.388Z,48.02
2022-08-03T06:35:03.498Z,48.36
2022-08-03T06:36:14.393Z,48.59
2022-08-03T06:37:23.147Z,48.80
2022-08-03T06:38:31.766Z,48.87
2022-08-03T06:39:39.441Z,49.15
2022-08-03T06:40:49.906Z,49.25
2022-08-03T06:42:00.526Z,49.20
2022-08-03T06:43:12.569Z,49.53
2022-08-03T06:44:21.541Z,49.66
2022-08-03T06:45:33.650Z,49.67
2022-08-03T06:46:44.788Z,49.95
2022-08-03T06:48:03.545Z,50.12
2022-08-03T06:49:13.948Z,49.95
2022-08-03T06:50:25.994Z,49.76
2022-08-03T06:52:03.112Z,49.79
2022-08-03T06:53:03.534Z,49.71
2022-08-03T06:54:15.774Z,49.87
2022-08-03T06:55:24.344Z,49.97
2022-08-03T06:56:32.631Z,49.74
2022-08-03T06:57:40.492Z,49.98
2022-08-03T06:58:49.756Z,50.23
2022-08-03T07:00:09.958Z,50.20
2022-08-03T07:01:22.381Z,50.16
2022-08-03T07:02:31.744Z,50.52
2022-08-03T07:03:39.416Z,50.55
2022-08-03T07:05:05.482Z,50.48
2022-08-03T07:06:15.854Z,50.75
2022-08-03T07:07:24.212Z,50.73
2022-08-03T07:08:34.880Z,50.83
2022-08-03T07:09:43.009Z,50.68
2022-08-03T07:11:09.592Z,50.62
2022-08-03T07:12:18.220Z,50.65
2022-08-03T07:13:26.373Z,50.77
2022-08-03T07:14:36.792Z,50.69
2022-08-03T07:15:55.458Z,51.00
2022-08-03T07:17:11.951Z,50.80
2022-08-03T07:18:23.019Z,50.68
2022-08-03T07:19:37.942Z,50.85
2022-08-03T07:20:46.764Z,51.16
2022-08-03T07:22:00.164Z,51.40
2022-08-03T07:23:19.327Z,51.35
2022-08-03T07:24:31.009Z,51.32
2022-08-03T07:25:38.632Z,51.44
2022-08-03T07:26:46.912Z,51.24
2022-08-03T07:27:57.559Z,51.67
2022-08-03T07:29:14.870Z,51.85
2022-08-03T07:30:23.625Z,51.84
2022-08-03T07:31:34.373Z,51.86
2022-08-03T07:32:50.343Z,51.75
2022-08-03T07:33:59.866Z,52.06
2022-08-03T07:35:24.855Z,52.33
2022-08-03T07:36:34.456Z,52.65
2022-08-03T07:37:42.750Z,52.84
2022-08-03T07:39:16.527Z,52.72
2022-08-03T07:40:31.932Z,52.45
2022-08-03T07:41:42.300Z,52.44
2022-08-03T07:42:53.353Z,52.75
2022-08-03T07:44:04.533Z,52.81
2022-08-03T07:45:13.985Z,52.96
2022-08-03T07:46:26.785Z,53.09
2022-08-03T07:47:36.748Z,52.78
2022-08-03T07:48:47.311Z,52.82
2022-08-03T07:49:57.379Z,53.04
2022-08-03T07:51:07.417Z,53.10
2022-08-03T07:52:43.795Z,53.19
2022-08-03T07:53:52.996Z,53.55
2022-08-03T07:55:01.221Z,53.80
2022-08-03T07:56:12.476Z,54.19
2022-08-03T07:57:20.171Z,54.11
2022-08-03T07:58:29.850Z,54.13
2022-08-03T07:59:56.681Z,54.08
2022-08-03T08:01:09.068Z,53.95
2022-08-03T08:02:19.679Z,53.92
2022-08-03T08:03:28.376Z,53.75
2022-08-03T08:04:59.979Z,53.94
2022-08-03T08:06:12.218Z,54.06
2022-08-03T08:07:20.791Z,54.44
2022-08-03T08:08:33.208Z,54.85
2022-08-03T08:09:41.894Z,55.03
2022-08-03T08:10:58.246Z,54.99
2022-08-03T08:12:15.722Z,55.15
2022-08-03T08:13:25.169Z,54.72
2022-08-03T08:14:36.115Z,54.85
2022-08-03T08:15:44.363Z,55.03
2022-08-03T08:16:53.888Z,55.02
2022-08-03T08:18:04.715Z,55.46
2022-08-03T08:19:18.363Z,55.89
2022-08-03T08:20:31.725Z,56.22
2022-08-03T08:21:52.921Z,56.54
2022-08-03T08:23:24.858Z,56.69
2022-08-03T08:24:35.634Z,56.52
2022-08-03T08:25:45.175Z,56.53
2022-08-03T08:26:56.264Z,56.66
2022-08-03T08:28:30.842Z,56.65
2022-08-03T08:29:37.371Z,57.01
2022-08-03T08:30:57.118Z,57.37
2022-08-03T08:32:07.372Z,57.35
2022-08-03T08:33:22.614Z,57.38
2022-08-03T08:34:34.283Z,57.20
2022-08-03T08:35:43.093Z,57.16
2022-08-03T08:36:52.234Z,57.47
2022-08-03T08:38:05.884Z,57.45
2022-08-03T08:39:17.617Z,57.84
2022-08-03T08:40:27.916Z,58.19
2022-08-03T08:41:36.966Z,58.34
2022-08-03T08:42:57.941Z,58.40
2022-08-03T08:44:13.366Z,58.03
2022-08-03T08:45:21.215Z,57.89
2022-08-03T08:46:28.908Z,57.79
2022-08-03T08:47:51.034Z,57.82
2022-08-03T08:49:04.920Z,57.78
2022-08-03T08:50:27.963Z,57.97
2022-08-03T08:51:59.715Z,58.41
2022-08-03T08:53:11.597Z,58.79
2022-08-03T08:54:26.295Z,59.11
2022-08-03T08:55:58.268Z,59.17
2022-08-03T08:57:21.287Z,59.25
2022-08-03T08:58:40.758Z,59.49
2022-08-03T08:59:51.549Z,59.69
2022-08-03T09:01:03.705Z,59.85
2022-08-03T09:02:14.432Z,59.66
2022-08-03T09:03:22.625Z,59.46
2022-08-03T09:04:42.492Z,59.19
2022-08-03T09:05:57.272Z,59.05
2022-08-03T09:07:19.648Z,59.08
2022-08-03T09:08:29.950Z,59.41
2022-08-03T09:10:11.745Z,59.41
2022-08-03T09:11:05.916Z,59.34
2022-08-03T09:12:39.201Z,59.40
2022-08-03T09:13:45.344Z,59.54
2022-08-03T09:15:14.701Z,59.61
2022-08-03T09:16:23.099Z,59.98
2022-08-03T09:17:46.413Z,60.16
2022-08-03T09:18:58.777Z,60.54
2022-08-03T09:20:11.559Z,60.52
2022-08-03T09:21:35.133Z,60.15
2022-08-03T09:23:26.281Z,59.91
2022-08-03T09:24:41.628Z,59.72
2022-08-03T09:25:52.188Z,60.28
2022-08-03T09:27:03.614Z,59.88
2022-08-03T09:28:52.558Z,59.89
2022-08-03T09:29:54.506Z,59.92
2022-08-03T09:31:02.886Z,60.25
2022-08-03T09:32:14.930Z,60.31
2022-08-03T09:33:23.140Z,60.61
2022-08-03T09:34:32.859Z,60.63
2022-08-03T09:35:53.914Z,60.59
2022-08-03T09:37:05.046Z,60.54
2022-08-03T09:38:18.076Z,60.44
2022-08-03T09:39:40.548Z,60.55
2022-08-03T09:40:59.891Z,60.69
2022-08-03T09:42:14.973Z,60.87
2022-08-03T09:43:23.591Z,61.10
2022-08-03T09:44:46.604Z,61.34
2022-08-03T09:45:55.385Z,61.49
2022-08-03T09:47:07.601Z,61.22
2022-08-03T09:48:27.957Z,61.09
2022-08-03T09:49:37.355Z,60.95
2022-08-03T09:51:12.920Z,61.19
2022-08-03T09:52:27.387Z,61.47
2022-08-03T09:53:57.077Z,61.47
2022-08-03T09:56:30.772Z,61.48
2022-08-03T09:56:48.836Z,61.27
2022-08-03T09:58:11.522Z,61.85
2022-08-03T09:59:30.519Z,62.35
2022-08-03T10:00:59.796Z,62.44
2022-08-03T10:02:09.173Z,62.43
2022-08-03T10:03:18.050Z,62.30
2022-08-03T10:04:27.117Z,62.14
2022-08-03T10:05:38.000Z,62.34
2022-08-03T10:07:04.364Z,61.94
2022-08-03T10:08:18.291Z,61.89
2022-08-03T10:09:27.344Z,61.81
2022-08-03T10:10:45.346Z,61.78
2022-08-03T10:11:53.209Z,61.81
2022-08-03T10:13:02.129Z,61.90
2022-08-03T10:14:20.716Z,61.83
2022-08-03T10:16:22.719Z,61.93
2022-08-03T10:16:58.272Z,61.93
2022-08-03T10:18:08.813Z,61.64
2022-08-03T10:19:17.690Z,61.56
2022-08-03T10:20:27.132Z,61.59
2022-08-03T10:21:39.685Z,61.34
2022-08-03T10:22:48.219Z,61.24
2022-08-03T10:23:58.070Z,61.19
2022-08-03T10:25:11.779Z,61.26
2022-08-03T10:26:24.619Z,61.51
2022-08-03T10:27:37.954Z,61.78
2022-08-03T10:28:50.274Z,61.81
2022-08-03T10:30:02.273Z,61.84
2022-08-03T10:31:13.411Z,61.91
2022-08-03T10:33:01.980Z,61.78
2022-08-03T10:34:21.495Z,61.67
2022-08-03T10:35:29.506Z,61.58
2022-08-03T10:36:40.349Z,61.58
2022-08-03T10:37:56.730Z,61.61
2022-08-03T10:39:16.247Z,61.54
2022-08-03T10:42:02.832Z,62.14
2022-08-03T10:43:15.110Z,62.15
2022-08-03T10:44:26.444Z,62.09
2022-08-03T10:45:38.637Z,62.30
2022-08-03T10:46:48.419Z,62.54
2022-08-03T10:47:58.673Z,62.64
2022-08-03T10:49:08.401Z,62.66
2022-08-03T10:50:16.768Z,62.45
2022-08-03T10:51:26.543Z,62.36
2022-08-03T10:52:41.277Z,62.16
2022-08-03T10:53:55.319Z,62.22
2022-08-03T10:55:25.623Z,62.15
2022-08-03T10:56:56.528Z,62.27
2022-08-03T10:58:11.165Z,62.21
2022-08-03T10:59:27.377Z,62.29
2022-08-03T11:00:54.110Z,62.45
2022-08-03T11:02:02.830Z,62.33
2022-08-03T11:03:17.855Z,62.40
2022-08-03T11:04:28.225Z,62.37
2022-08-03T11:05:38.909Z,62.42
2022-08-03T11:06:48.506Z,62.77
2022-08-03T11:08:26.161Z,62.87
2022-08-03T11:09:43.978Z,62.93
2022-08-03T11:10:52.764Z,62.82
2022-08-03T11:12:04.220Z,62.80
2022-08-03T11:13:14.942Z,62.68
2022-08-03T11:14:27.968Z,62.67
2022-08-03T11:15:37.751Z,62.57
2022-08-03T11:17:00.776Z,62.60
2022-08-03T11:18:15.357Z,62.51
2022-08-03T11:19:30.023Z,62.59
2022-08-03T11:20:51.723Z,62.56
2022-08-03T11:21:59.945Z,62.76
2022-08-03T11:23:08.602Z,62.85
2022-08-03T11:24:47.902Z,63.08
2022-08-03T11:26:19.296Z,63.24
2022-08-03T11:27:32.020Z,63.43
2022-08-03T11:28:41.580Z,63.50
2022-08-03T11:30:10.105Z,63.83
2022-08-03T11:33:00.499Z,63.42
2022-08-03T11:34:16.347Z,63.23
2022-08-03T11:35:36.862Z,63.18
2022-08-03T11:37:23.191Z,63.20
2022-08-03T11:38:34.810Z,63.36
2022-08-03T11:39:47.352Z,63.63
2022-08-03T11:40:56.018Z,63.75
2022-08-03T11:42:28.978Z,63.87
2022-08-03T11:43:43.683Z,64.15
2022-08-03T11:44:57.925Z,64.47
2022-08-03T11:46:29.782Z,64.76
2022-08-03T11:47:51.035Z,64.78
2022-08-03T11:49:10.926Z,64.97
2022-08-03T11:50:24.282Z,65.18
2022-08-03T11:51:35.965Z,65.14
2022-08-03T11:52:44.476Z,64.88
2022-08-03T11:54:00.547Z,64.89
2022-08-03T11:55:12.970Z,64.91
2022-08-03T11:56:22.007Z,64.88
2022-08-03T11:59:17.516Z,64.96
2022-08-03T11:59:20.354Z,64.93
2022-08-03T12:00:31.387Z,64.72
2022-08-03T12:01:40.417Z,64.66
2022-08-03T12:02:59.039Z,64.81
2022-08-03T12:04:08.525Z,64.76
2022-08-03T12:05:18.200Z,64.66
2022-08-03T12:06:27.950Z,64.65
2022-08-03T12:08:03.032Z,64.38
2022-08-03T12:09:21.312Z,64.29
2022-08-03T12:10:31.136Z,64.20
2022-08-03T12:11:39.695Z,64.09
2022-08-03T12:14:44.395Z,63.88
2022-08-03T12:14:49.277Z,63.79
2022-08-03T12:16:04.691Z,63.98
2022-08-03T12:17:15.493Z,64.45
2022-08-03T12:18:24.336Z,64.86
2022-08-03T12:19:45.731Z,65.13
2022-08-03T12:20:55.290Z,65.42
2022-08-03T12:22:03.554Z,66.00
2022-08-03T12:23:11.591Z,66.38
2022-08-03T12:24:21.323Z,66.59
2022-08-03T12:25:39.771Z,66.76
2022-08-03T12:26:58.289Z,67.16
2022-08-03T12:28:36.250Z,67.34
2022-08-03T12:29:58.187Z,67.58
2022-08-03T12:31:15.002Z,67.44
2022-08-03T12:32:27.632Z,67.71
2022-08-03T12:33:58.715Z,68.18
2022-08-03T12:35:08.974Z,68.62
2022-08-03T12:36:18.994Z,68.86
2022-08-03T12:37:27.001Z,68.92
2022-08-03T12:38:36.287Z,68.74
2022-08-03T12:40:00.535Z,68.35
2022-08-03T12:41:18.276Z,68.02
2022-08-03T12:42:47.994Z,67.87
2022-08-03T12:43:56.824Z,67.94
2022-08-03T12:45:25.839Z,67.99
2022-08-03T12:46:41.680Z,68.12
2022-08-03T12:48:00.677Z,68.17
2022-08-03T12:49:13.703Z,68.09
2022-08-03T12:50:39.177Z,67.99
2022-08-03T12:51:47.385Z,67.98
2022-08-03T12:52:57.782Z,67.99
2022-08-03T12:54:06.814Z,68.01
2022-08-03T12:55:23.585Z,68.17
2022-08-03T12:56:34.297Z,68.32
2022-08-03T12:57:44.765Z,68.44
2022-08-03T12:58:55.647Z,68.77
2022-08-03T13:00:28.807Z,69.03
2022-08-03T13:01:55.322Z,69.37
2022-08-03T13:03:39.311Z,69.59
2022-08-03T13:04:38.403Z,69.82
2022-08-03T13:05:46.626Z,70.10
2022-08-03T13:07:06.784Z,70.09
2022-08-03T13:08:27.735Z,70.31
2022-08-03T13:09:54.791Z,70.21
2022-08-03T13:11:19.185Z,70.30
2022-08-03T13:12:28.552Z,70.56
2022-08-03T13:13:43.041Z,70.77
2022-08-03T13:15:00.751Z,70.84
2022-08-03T13:16:13.556Z,70.89
2022-08-03T13:17:25.600Z,70.79
2022-08-03T13:18:33.874Z,70.65
2022-08-03T13:19:43.157Z,70.69
2022-08-03T13:20:54.659Z,70.66
2022-08-03T13:22:05.048Z,70.51
2022-08-03T13:23:22.055Z,70.45
2022-08-03T13:24:32.374Z,70.78
2022-08-03T13:25:41.048Z,70.84
2022-08-03T13:28:02.367Z,70.92
2022-08-03T13:28:39.419Z,70.92
2022-08-03T13:29:47.613Z,70.78
2022-08-03T13:30:57.948Z,70.58
2022-08-03T13:32:06.968Z,70.35
2022-08-03T13:33:18.092Z,69.99
2022-08-03T13:34:29.144Z,69.88
2022-08-03T13:35:38.864Z,69.61
2022-08-03T13:37:08.083Z,69.34
2022-08-03T13:38:17.837Z,68.86
2022-08-03T13:39:32.558Z,68.26
2022-08-03T13:40:46.037Z,67.85
2022-08-03T13:41:55.536Z,67.37
2022-08-03T13:43:04.811Z,66.87
2022-08-03T13:44:28.264Z,66.46
2022-08-03T13:45:38.043Z,65.86
2022-08-03T13:46:49.162Z,65.33
2022-08-03T13:47:58.472Z,64.88
2022-08-03T13:49:09.184Z,64.27
2022-08-03T13:50:18.636Z,63.91
2022-08-03T13:51:27.265Z,63.73
2022-08-03T13:52:37.845Z,63.75
2022-08-03T13:53:46.198Z,63.76
2022-08-03T13:54:58.594Z,63.89
2022-08-03T13:56:08.641Z,63.98
2022-08-03T13:58:02.972Z,63.87
2022-08-03T13:58:48.209Z,63.71
2022-08-03T13:59:56.575Z,63.68
2022-08-03T14:01:05.158Z,63.59
2022-08-03T14:02:16.197Z,63.39
2022-08-03T14:03:27.399Z,63.20
2022-08-03T14:04:38.764Z,62.58
2022-08-03T14:05:47.236Z,61.46
2022-08-03T14:06:58.152Z,60.80
2022-08-03T14:08:08.575Z,59.53
2022-08-03T14:09:19.699Z,58.32
2022-08-03T14:10:29.432Z,57.71
2022-08-03T14:12:07.319Z,57.67
2022-08-03T14:13:07.781Z,57.56
2022-08-03T14:14:18.733Z,57.56
2022-08-03T14:15:28.077Z,57.59
2022-08-03T14:16:38.027Z,57.33
2022-08-03T14:17:49.651Z,57.10
2022-08-03T14:18:59.250Z,57.00
2022-08-03T14:20:38.610Z,56.77
2022-08-03T14:22:01.819Z,56.51
2022-08-03T14:23:19.322Z,56.16
2022-08-03T14:24:30.490Z,55.41
2022-08-03T14:25:44.487Z,54.76
2022-08-03T14:27:07.132Z,53.91
2022-08-03T14:28:19.288Z,53.80
2022-08-03T14:29:28.623Z,53.29
2022-08-03T14:30:36.603Z,53.25
2022-08-03T14:32:12.024Z,52.45
2022-08-03T14:33:15.889Z,51.86
2022-08-03T14:34:26.372Z,50.89
2022-08-03T14:35:36.102Z,50.15
2022-08-03T14:36:44.381Z,49.71
2022-08-03T14:37:53.549Z,49.32
2022-08-03T14:39:04.951Z,49.11
2022-08-03T14:40:13.694Z,49.11
2022-08-03T14:41:25.001Z,48.54
2022-08-03T14:42:36.006Z,47.94
2022-08-03T14:44:01.173Z,47.24
2022-08-03T14:45:16.040Z,46.67
2022-08-03T14:46:32.052Z,46.94
2022-08-03T14:50:28.698Z,45.72
2022-08-03T14:50:31.010Z,46.15
2022-08-03T14:50:44.240Z,46.36
2022-08-03T14:51:58.410Z,46.58
2022-08-03T14:53:06.635Z,46.32
2022-08-03T14:54:17.475Z,46.45
2022-08-03T14:55:27.700Z,46.46
2022-08-03T14:56:50.180Z,46.04
2022-08-03T14:57:57.900Z,45.92
2022-08-03T14:59:06.233Z,45.62
2022-08-03T15:00:17.917Z,45.25
2022-08-03T15:02:04.799Z,45.26
2022-08-03T15:02:56.372Z,45.51
2022-08-03T15:04:05.108Z,45.66
2022-08-03T15:05:14.433Z,45.07
2022-08-03T15:06:26.174Z,44.80
2022-08-03T15:07:34.369Z,44.06
2022-08-03T15:08:51.372Z,43.96
2022-08-03T15:10:11.625Z,43.88
2022-08-03T15:11:19.764Z,43.83
2022-08-03T15:12:30.219Z,43.90
2022-08-03T15:13:38.931Z,43.66
2022-08-03T15:14:48.579Z,44.07
2022-08-03T15:15:59.223Z,44.25
2022-08-03T15:17:08.630Z,43.84
2022-08-03T15:18:19.463Z,43.34
2022-08-03T15:20:00.465Z,43.01
2022-08-03T15:20:58.208Z,43.32
2022-08-03T15:22:06.527Z,43.07
2022-08-03T15:23:19.502Z,42.96
2022-08-03T15:24:29.340Z,42.77
2022-08-03T15:26:03.787Z,42.41
2022-08-03T15:27:06.557Z,42.25
2022-08-03T15:28:14.673Z,41.62
2022-08-03T15:30:06.116Z,41.05
2022-08-03T15:30:58.740Z,39.27
2022-08-03T15:32:09.628Z,38.68
2022-08-03T15:33:20.192Z,38.60
2022-08-03T15:34:29.250Z,37.40
2022-08-03T15:35:37.796Z,37.02
2022-08-03T15:36:48.413Z,36.97
2022-08-03T15:37:56.712Z,36.47
2022-08-03T15:39:07.741Z,36.35
2022-08-03T15:40:19.139Z,36.09
2022-08-03T15:41:26.812Z,35.85
2022-08-03T15:42:37.530Z,34.99
2022-08-03T15:43:47.906Z,35.07
2022-08-03T15:44:57.845Z,35.63
2022-08-03T15:46:28.725Z,36.01
2022-08-03T15:47:34.908Z,36.39
2022-08-03T15:48:43.885Z,36.26
2022-08-03T15:49:52.543Z,36.04
2022-08-03T15:51:02.656Z,36.18
2022-08-03T15:52:11.029Z,36.26
2022-08-03T15:53:21.383Z,36.25
2022-08-03T15:54:30.574Z,36.50
2022-08-03T15:55:39.197Z,35.49
2022-08-03T15:56:48.185Z,34.93
2022-08-03T15:59:10.752Z,34.98
2022-08-03T15:59:27.562Z,34.85
2022-08-03T16:00:37.592Z,34.67
2022-08-03T16:01:48.979Z,33.36